Discovery — 3FII9 — position and weather

sailwx.info

Track history (hours):
 
Tides and Currents Weather Stations Pressure Air Temp Water Temp Dewpoint Dewpoint Depression Visibility Wind Speed Wind Dir Waves Ship Positions

Discovery

Operator: V Ships Leisure SAM

Last reported at 2014-Nov-18 21:19 UTC. Time now 2014-Nov-23 11:15 UTC.
Position N 52°31' W 005°50'.

Length 177 m; draft 10 m.

Type: Cargo ship. MMSI: 353389000.

Date/timePositionNaut miles runAvg speedWind from/ knotsBaromVisibWave heightAir tempDewpointWater temp
2014-Nov-18 21:19N 52°31' W 005°50'912.0
2014-Nov-18 20:33N 52°22' W 005°53'1312.8
2014-Nov-18 19:33N 52°10' W 005°58'1211.8
2014-Nov-18 18:33N 52°01' W 006°11'  
2014-Nov-15 05:17N 38°07' W 009°41'6 8.5
2014-Nov-15 04:33N 38°01' W 009°39'8 7.9
2014-Nov-15 03:33N 37°54' W 009°37'8 7.6
2014-Nov-15 02:33N 37°46' W 009°35'8 7.5
2014-Nov-15 01:33N 37°39' W 009°33'66 7.2
2014-Nov-14 16:23N 36°40' W 008°54'11 9.1
2014-Nov-14 15:10N 36°37' W 008°41'15810.0
2014-Nov-13 23:24N 35°59' W 005°30'7 8.3
2014-Nov-13 22:33N 36°03' W 005°23'5 1.4
2014-Nov-13 19:20N 36°08' W 005°22'0 0.0
2014-Nov-13 18:14N 36°08' W 005°22'0 0.1
2014-Nov-13 17:09N 36°08' W 005°22'2 3.7
2014-Nov-13 16:32N 36°06' W 005°22'5 5.3
2014-Nov-13 15:33N 36°03' W 005°16'  
2014-Nov-10 05:09N 36°39' E 013°46'712.5
2014-Nov-10 04:33N 36°36' E 013°55'1212.4
2014-Nov-10 03:33N 36°32' E 014°09'1312.3
2014-Nov-10 02:31N 36°28' E 014°25'  
Track history (hours):
 
Tides and Currents Weather Stations Pressure Air Temp Water Temp Dewpoint Dewpoint Depression Visibility Wind Speed Wind Dir Waves Ship Positions

Discovery

Operator: V Ships Leisure SAM

Last reported at 2014-Nov-18 21:19 UTC. Time now 2014-Nov-23 11:15 UTC.
Position N 52°31' W 005°50'.

Length 177 m; draft 10 m.

Type: Cargo ship. MMSI: 353389000.

Date/timePositionNaut miles runAvg speedWind from/ knotsBaromVisibWave heightAir tempDewpointWater temp
2014-Nov-18 21:19N 52°31' W 005°50'912.0
2014-Nov-18 20:33N 52°22' W 005°53'1312.8
2014-Nov-18 19:33N 52°10' W 005°58'1211.8
2014-Nov-18 18:33N 52°01' W 006°11'  
2014-Nov-15 05:17N 38°07' W 009°41'6 8.5
2014-Nov-15 04:33N 38°01' W 009°39'8 7.9
2014-Nov-15 03:33N 37°54' W 009°37'8 7.6
2014-Nov-15 02:33N 37°46' W 009°35'8 7.5
2014-Nov-15 01:33N 37°39' W 009°33'66 7.2
2014-Nov-14 16:23N 36°40' W 008°54'11 9.1
2014-Nov-14 15:10N 36°37' W 008°41'15810.0
2014-Nov-13 23:24N 35°59' W 005°30'7 8.3
2014-Nov-13 22:33N 36°03' W 005°23'5 1.4
2014-Nov-13 19:20N 36°08' W 005°22'0 0.0
2014-Nov-13 18:14N 36°08' W 005°22'0 0.1
2014-Nov-13 17:09N 36°08' W 005°22'2 3.7
2014-Nov-13 16:32N 36°06' W 005°22'5 5.3
2014-Nov-13 15:33N 36°03' W 005°16'  
2014-Nov-10 05:09N 36°39' E 013°46'712.5
2014-Nov-10 04:33N 36°36' E 013°55'1212.4
2014-Nov-10 03:33N 36°32' E 014°09'1312.3
2014-Nov-10 02:31N 36°28' E 014°25'  

Dump ship's entire track history